createdAt,value
2018-10-02T00:00:03.169Z,9.95
2018-10-02T00:01:03.151Z,9.98
2018-10-02T00:02:24.154Z,9.95
2018-10-02T00:03:24.135Z,9.99
2018-10-02T00:04:03.133Z,10.04
2018-10-02T00:05:03.130Z,10.02
2018-10-02T00:06:03.100Z,9.98
2018-10-02T00:07:24.112Z,9.99
2018-10-02T00:08:24.112Z,9.95
2018-10-02T00:09:03.104Z,9.97
2018-10-02T00:10:03.067Z,9.95
2018-10-02T00:11:03.096Z,9.94
2018-10-02T00:12:25.074Z,9.95
2018-10-02T00:13:24.236Z,9.99
2018-10-02T00:14:03.072Z,9.97
2018-10-02T00:15:03.081Z,9.97
2018-10-02T00:16:03.151Z,9.95
2018-10-02T00:17:24.125Z,9.99
2018-10-02T00:18:24.301Z,9.98
2018-10-02T00:19:03.045Z,9.99
2018-10-02T00:20:03.141Z,10.04
2018-10-02T00:21:03.030Z,9.98
2018-10-02T00:22:24.032Z,9.97
2018-10-02T00:23:24.022Z,10.07
2018-10-02T00:24:03.103Z,10.04
2018-10-02T00:25:03.015Z,10.09
2018-10-02T00:26:03.004Z,10.07
2018-10-02T00:27:24.207Z,10.13
2018-10-02T00:28:23.995Z,10.01
2018-10-02T00:29:02.965Z,10.05
2018-10-02T00:30:03.013Z,10.15
2018-10-02T00:31:02.967Z,10.15
2018-10-02T00:32:24.091Z,10.19
2018-10-02T00:33:23.990Z,10.16
2018-10-02T00:34:02.958Z,10.19
2018-10-02T00:35:02.971Z,10.20
2018-10-02T00:36:02.949Z,10.15
2018-10-02T00:37:23.952Z,10.16
2018-10-02T00:38:23.957Z,10.20
2018-10-02T00:39:02.913Z,10.26
2018-10-02T00:40:02.921Z,10.31
2018-10-02T00:41:02.953Z,10.22
2018-10-02T00:42:23.915Z,10.25
2018-10-02T00:43:23.912Z,10.20
2018-10-02T00:44:02.874Z,10.20
2018-10-02T00:45:02.881Z,10.26
2018-10-02T00:46:02.893Z,10.26
2018-10-02T00:47:23.887Z,10.23
2018-10-02T00:48:23.891Z,10.20
2018-10-02T00:49:02.879Z,10.28
2018-10-02T00:50:02.901Z,10.35
2018-10-02T00:51:02.872Z,10.33
2018-10-02T00:52:23.862Z,10.34
2018-10-02T00:53:23.905Z,10.33
2018-10-02T00:54:02.994Z,10.31
2018-10-02T00:55:02.831Z,10.40
2018-10-02T00:56:02.838Z,10.37
2018-10-02T00:57:23.836Z,10.38
2018-10-02T00:58:23.830Z,10.41
2018-10-02T00:59:02.814Z,10.42
2018-10-02T01:00:02.810Z,10.41
2018-10-02T01:01:02.807Z,10.38
2018-10-02T01:02:23.810Z,10.44
2018-10-02T01:03:23.792Z,10.34
2018-10-02T01:04:02.793Z,10.37
2018-10-02T01:05:02.793Z,10.49
2018-10-02T01:06:02.779Z,10.49
2018-10-02T01:07:23.778Z,10.46
2018-10-02T01:08:23.764Z,10.42
2018-10-02T01:09:02.756Z,10.51
2018-10-02T01:10:02.745Z,10.46
2018-10-02T01:11:02.754Z,10.35
2018-10-02T01:12:23.753Z,10.44
2018-10-02T01:13:24.082Z,10.53
2018-10-02T01:14:02.733Z,10.42
2018-10-02T01:15:02.731Z,10.51
2018-10-02T01:16:02.725Z,10.38
2018-10-02T01:17:23.727Z,10.44
2018-10-02T01:18:23.729Z,10.48
2018-10-02T01:19:02.706Z,10.53
2018-10-02T01:20:02.706Z,10.53
2018-10-02T01:21:02.700Z,10.46
2018-10-02T01:22:23.696Z,10.46
2018-10-02T01:23:23.693Z,10.48
2018-10-02T01:24:02.683Z,10.37
2018-10-02T01:25:02.679Z,10.54
2018-10-02T01:26:02.674Z,10.49
2018-10-02T01:27:23.671Z,10.42
2018-10-02T01:28:23.663Z,10.35
2018-10-02T01:29:02.650Z,10.35
2018-10-02T01:30:02.651Z,10.49
2018-10-02T01:31:02.633Z,10.42
2018-10-02T01:32:23.645Z,10.34
2018-10-02T01:33:23.655Z,10.38
2018-10-02T01:34:02.645Z,10.34
2018-10-02T01:35:02.644Z,10.35
2018-10-02T01:36:02.621Z,10.46
2018-10-02T01:37:23.624Z,10.44
2018-10-02T01:38:23.622Z,10.44
2018-10-02T01:39:02.607Z,10.41
2018-10-02T01:40:02.615Z,10.41
2018-10-02T01:41:02.590Z,10.35
2018-10-02T01:42:23.637Z,10.41
2018-10-02T01:43:23.585Z,10.31
2018-10-02T01:44:02.585Z,10.37
2018-10-02T01:45:02.567Z,10.31
2018-10-02T01:46:02.551Z,10.44
2018-10-02T01:47:23.538Z,10.34
2018-10-02T01:48:23.557Z,10.34
2018-10-02T01:49:02.544Z,10.48
2018-10-02T01:50:02.523Z,10.33
2018-10-02T01:51:02.544Z,10.31
2018-10-02T01:52:23.528Z,10.33
2018-10-02T01:53:23.528Z,10.35
2018-10-02T01:54:02.511Z,10.33
2018-10-02T01:55:02.514Z,10.30
2018-10-02T01:56:02.510Z,10.33
2018-10-02T01:57:23.504Z,10.25
2018-10-02T01:58:23.502Z,10.34
2018-10-02T01:59:02.461Z,10.31
2018-10-02T02:00:02.480Z,10.33
2018-10-02T02:01:02.458Z,10.31
2018-10-02T02:02:23.470Z,10.31
2018-10-02T02:03:23.470Z,10.33
2018-10-02T02:04:02.716Z,10.26
2018-10-02T02:05:02.451Z,10.20
2018-10-02T02:06:02.523Z,10.22
2018-10-02T02:07:23.531Z,10.33
2018-10-02T02:08:23.487Z,10.28
2018-10-02T02:09:02.609Z,10.30
2018-10-02T02:10:02.500Z,10.28
2018-10-02T02:11:02.517Z,10.35
2018-10-02T02:12:23.506Z,10.26
2018-10-02T02:13:23.493Z,10.44
2018-10-02T02:14:02.476Z,10.48
2018-10-02T02:15:02.475Z,10.38
2018-10-02T02:16:02.473Z,10.35
2018-10-02T02:17:23.450Z,10.41
2018-10-02T02:18:23.491Z,10.37
2018-10-02T02:19:02.446Z,10.42
2018-10-02T02:20:02.444Z,10.35
2018-10-02T02:21:02.443Z,10.37
2018-10-02T02:22:23.439Z,10.42
2018-10-02T02:23:23.449Z,10.41
2018-10-02T02:24:02.424Z,10.42
2018-10-02T02:25:02.417Z,10.33
2018-10-02T02:26:02.414Z,10.38
2018-10-02T02:27:23.417Z,10.41
2018-10-02T02:28:23.383Z,10.46
2018-10-02T02:29:02.465Z,10.44
2018-10-02T02:30:02.399Z,10.41
2018-10-02T02:31:02.386Z,10.48
2018-10-02T02:32:23.389Z,10.42
2018-10-02T02:33:23.388Z,10.48
2018-10-02T02:34:02.382Z,10.40
2018-10-02T02:35:03.182Z,10.37
2018-10-02T02:36:02.368Z,10.44
2018-10-02T02:37:23.341Z,10.53
2018-10-02T02:38:23.380Z,10.54
2018-10-02T02:39:02.347Z,10.51
2018-10-02T02:40:02.341Z,10.48
2018-10-02T02:41:02.342Z,10.46
2018-10-02T02:42:23.333Z,10.48
2018-10-02T02:43:23.329Z,10.53
2018-10-02T02:44:02.317Z,10.42
2018-10-02T02:45:02.309Z,10.46
2018-10-02T02:46:02.303Z,10.38
2018-10-02T02:47:23.301Z,10.42
2018-10-02T02:48:23.301Z,10.41
2018-10-02T02:49:02.289Z,10.28
2018-10-02T02:50:02.295Z,10.33
2018-10-02T02:51:02.286Z,10.34
2018-10-02T02:52:23.319Z,10.28
2018-10-02T02:53:23.255Z,10.38
2018-10-02T02:54:02.272Z,10.30
2018-10-02T02:55:02.260Z,10.26
2018-10-02T02:56:02.257Z,10.30
2018-10-02T02:57:23.259Z,10.26
2018-10-02T02:58:23.218Z,10.30
2018-10-02T02:59:02.232Z,10.34
2018-10-02T03:00:02.230Z,10.33
2018-10-02T03:01:02.223Z,10.30
2018-10-02T03:02:23.221Z,10.35
2018-10-02T03:03:23.223Z,10.34
2018-10-02T03:04:02.211Z,10.34
2018-10-02T03:05:02.206Z,10.30
2018-10-02T03:06:03.180Z,10.31
2018-10-02T03:07:23.195Z,10.33
2018-10-02T03:08:23.180Z,10.35
2018-10-02T03:09:02.169Z,10.34
2018-10-02T03:10:02.173Z,10.33
2018-10-02T03:11:02.169Z,10.30
2018-10-02T03:12:23.139Z,10.30
2018-10-02T03:13:23.157Z,10.34
2018-10-02T03:14:02.149Z,10.33
2018-10-02T03:15:02.151Z,10.35
2018-10-02T03:16:02.147Z,10.34
2018-10-02T03:17:23.142Z,10.35
2018-10-02T03:18:37.723Z,10.31
2018-10-02T03:19:02.153Z,10.35
2018-10-02T03:20:02.136Z,10.33
2018-10-02T03:21:02.110Z,10.33
2018-10-02T03:22:23.115Z,10.34
2018-10-02T03:23:23.112Z,10.26
2018-10-02T03:24:02.102Z,10.28
2018-10-02T03:25:02.070Z,10.28
2018-10-02T03:26:02.085Z,10.33
2018-10-02T03:27:23.072Z,10.30
2018-10-02T03:28:23.084Z,10.31
2018-10-02T03:29:02.073Z,10.28
2018-10-02T03:30:02.067Z,10.25
2018-10-02T03:31:02.051Z,10.20
2018-10-02T03:32:23.039Z,10.26
2018-10-02T03:33:23.047Z,10.16
2018-10-02T03:34:02.060Z,10.30
2018-10-02T03:35:02.068Z,10.25
2018-10-02T03:36:02.031Z,10.30
2018-10-02T03:37:23.031Z,10.16
2018-10-02T03:38:23.022Z,10.19
2018-10-02T03:39:02.054Z,10.25
2018-10-02T03:40:02.034Z,10.19
2018-10-02T03:41:02.016Z,10.23
2018-10-02T03:42:23.037Z,10.28
2018-10-02T03:43:23.002Z,10.20
2018-10-02T03:44:02.005Z,10.19
2018-10-02T03:45:02.030Z,10.31
2018-10-02T03:46:02.017Z,10.19
2018-10-02T03:47:23.922Z,10.22
2018-10-02T03:48:22.977Z,10.23
2018-10-02T03:49:02.058Z,10.23
2018-10-02T03:50:01.975Z,10.25
2018-10-02T03:51:01.968Z,10.23
2018-10-02T03:52:22.946Z,10.30
2018-10-02T03:53:22.937Z,10.23
2018-10-02T03:54:01.930Z,10.19
2018-10-02T03:55:01.961Z,10.28
2018-10-02T03:56:02.351Z,10.22
2018-10-02T03:57:22.925Z,10.33
2018-10-02T03:58:22.913Z,10.28
2018-10-02T03:59:01.925Z,10.23
2018-10-02T04:00:01.983Z,10.26
2018-10-02T04:01:01.941Z,10.28
2018-10-02T04:02:22.885Z,10.28
2018-10-02T04:03:22.888Z,10.19
2018-10-02T04:04:01.870Z,10.26
2018-10-02T04:05:01.896Z,10.26
2018-10-02T04:06:01.876Z,10.12
2018-10-02T04:07:22.861Z,10.20
2018-10-02T04:08:22.838Z,10.23
2018-10-02T04:09:01.851Z,10.26
2018-10-02T04:10:01.850Z,10.22
2018-10-02T04:11:01.866Z,10.26
2018-10-02T04:12:22.830Z,10.22
2018-10-02T04:13:22.939Z,10.19
2018-10-02T04:14:01.820Z,10.17
2018-10-02T04:15:01.825Z,10.25
2018-10-02T04:16:01.807Z,10.15
2018-10-02T04:17:22.795Z,10.19
2018-10-02T04:18:22.799Z,10.22
2018-10-02T04:19:01.792Z,10.16
2018-10-02T04:20:01.789Z,10.23
2018-10-02T04:21:01.768Z,10.19
2018-10-02T04:22:22.774Z,10.20
2018-10-02T04:23:22.775Z,10.16
2018-10-02T04:24:01.755Z,10.12
2018-10-02T04:25:01.752Z,10.15
2018-10-02T04:26:01.729Z,10.12
2018-10-02T04:27:22.773Z,10.19
2018-10-02T04:28:22.854Z,10.12
2018-10-02T04:29:01.729Z,10.07
2018-10-02T04:30:01.766Z,10.07
2018-10-02T04:31:01.735Z,10.05
2018-10-02T04:32:22.725Z,10.13
2018-10-02T04:33:22.712Z,10.05
2018-10-02T04:34:01.719Z,10.12
2018-10-02T04:35:01.704Z,10.05
2018-10-02T04:36:01.689Z,9.97
2018-10-02T04:37:22.671Z,10.01
2018-10-02T04:38:22.686Z,10.05
2018-10-02T04:39:01.678Z,9.97
2018-10-02T04:40:01.663Z,10.05
2018-10-02T04:41:01.661Z,9.98
2018-10-02T04:42:22.663Z,9.99
2018-10-02T04:43:22.676Z,10.02
2018-10-02T04:44:01.614Z,9.98
2018-10-02T04:45:01.631Z,10.02
2018-10-02T04:46:01.626Z,9.97
2018-10-02T04:47:22.636Z,9.95
2018-10-02T04:48:22.857Z,9.97
2018-10-02T04:49:01.612Z,10.05
2018-10-02T04:50:01.604Z,9.95
2018-10-02T04:51:01.594Z,9.97
2018-10-02T04:52:22.595Z,9.95
2018-10-02T04:53:22.616Z,9.95
2018-10-02T04:54:01.583Z,9.95
2018-10-02T04:55:01.657Z,9.83
2018-10-02T04:56:01.582Z,9.91
2018-10-02T04:57:22.556Z,9.92
2018-10-02T04:58:22.576Z,9.87
2018-10-02T04:59:01.548Z,9.82
2018-10-02T05:00:01.548Z,9.89
2018-10-02T05:01:01.543Z,9.83
2018-10-02T05:02:22.562Z,9.83
2018-10-02T05:03:22.604Z,9.89
2018-10-02T05:04:01.529Z,9.83
2018-10-02T05:05:01.521Z,9.86
2018-10-02T05:06:01.522Z,9.84
2018-10-02T05:07:22.519Z,9.79
2018-10-02T05:08:22.523Z,9.82
2018-10-02T05:09:01.504Z,9.80
2018-10-02T05:10:01.531Z,9.79
2018-10-02T05:11:01.496Z,9.80
2018-10-02T05:12:22.484Z,9.83
2018-10-02T05:13:22.472Z,9.83
2018-10-02T05:14:01.493Z,9.84
2018-10-02T05:15:01.464Z,9.82
2018-10-02T05:16:01.505Z,9.79
2018-10-02T05:17:22.472Z,9.86
2018-10-02T05:18:22.459Z,9.86
2018-10-02T05:19:01.490Z,9.87
2018-10-02T05:20:01.450Z,9.82
2018-10-02T05:21:01.434Z,9.86
2018-10-02T05:22:22.426Z,9.91
2018-10-02T05:23:22.444Z,9.80
2018-10-02T05:24:01.442Z,9.95
2018-10-02T05:25:01.420Z,9.84
2018-10-02T05:26:01.403Z,9.89
2018-10-02T05:27:22.546Z,9.91
2018-10-02T05:28:22.399Z,9.89
2018-10-02T05:29:01.387Z,9.86
2018-10-02T05:30:01.353Z,9.92
2018-10-02T05:31:01.370Z,9.86
2018-10-02T05:32:22.382Z,9.86
2018-10-02T05:33:22.377Z,9.84
2018-10-02T05:34:01.365Z,9.94
2018-10-02T05:35:01.365Z,9.84
2018-10-02T05:36:01.346Z,9.82
2018-10-02T05:37:22.346Z,9.95
2018-10-02T05:38:22.351Z,9.84
2018-10-02T05:39:01.475Z,9.80
2018-10-02T05:40:01.328Z,9.82
2018-10-02T05:41:01.321Z,9.84
2018-10-02T05:42:22.322Z,9.79
2018-10-02T05:43:22.299Z,9.82
2018-10-02T05:44:01.304Z,9.80
2018-10-02T05:45:01.298Z,9.80
2018-10-02T05:46:01.311Z,9.77
2018-10-02T05:47:22.312Z,9.84
2018-10-02T05:48:22.269Z,9.73
2018-10-02T05:49:01.300Z,9.72
2018-10-02T05:50:01.294Z,9.72
2018-10-02T05:51:01.223Z,9.68
2018-10-02T05:52:22.258Z,9.69
2018-10-02T05:53:22.250Z,9.73
2018-10-02T05:54:01.293Z,9.68
2018-10-02T05:55:01.228Z,9.65
2018-10-02T05:56:01.230Z,9.69
2018-10-02T05:57:22.256Z,9.68
2018-10-02T05:58:22.279Z,9.69
2018-10-02T05:59:01.197Z,9.68
2018-10-02T06:00:01.199Z,9.68
2018-10-02T06:01:01.207Z,9.77
2018-10-02T06:02:22.776Z,9.73
2018-10-02T06:03:22.176Z,9.89
2018-10-02T06:04:01.162Z,9.89
2018-10-02T06:05:01.197Z,9.91
2018-10-02T06:06:01.164Z,9.91
2018-10-02T06:07:22.194Z,9.97
2018-10-02T06:08:22.189Z,9.92
2018-10-02T06:09:01.179Z,9.99
2018-10-02T06:10:01.942Z,9.97
2018-10-02T06:11:01.138Z,9.97
2018-10-02T06:12:22.134Z,9.95
2018-10-02T06:13:22.129Z,9.95
2018-10-02T06:14:01.111Z,10.09
2018-10-02T06:15:01.110Z,10.05
2018-10-02T06:16:01.123Z,10.28
2018-10-02T06:17:22.100Z,10.19
2018-10-02T06:18:22.092Z,10.22
2018-10-02T06:19:01.090Z,10.23
2018-10-02T06:20:01.087Z,10.33
2018-10-02T06:21:01.080Z,10.30
2018-10-02T06:22:22.081Z,10.38
2018-10-02T06:23:22.085Z,10.35
2018-10-02T06:24:01.069Z,10.37
2018-10-02T06:25:01.049Z,10.49
2018-10-02T06:26:01.048Z,10.48
2018-10-02T06:27:22.050Z,10.54
2018-10-02T06:28:22.035Z,10.54
2018-10-02T06:29:01.027Z,10.57
2018-10-02T06:30:01.014Z,10.56
2018-10-02T06:31:01.040Z,10.59
2018-10-02T06:32:22.014Z,10.69
2018-10-02T06:33:22.013Z,10.67
2018-10-02T06:34:00.997Z,10.61
2018-10-02T06:35:00.989Z,10.71
2018-10-02T06:36:01.015Z,10.76
2018-10-02T06:37:21.980Z,10.76
2018-10-02T06:38:22.114Z,10.76
2018-10-02T06:39:01.011Z,10.71
2018-10-02T06:40:00.968Z,10.75
2018-10-02T06:41:01.907Z,10.75
2018-10-02T06:42:21.984Z,10.81
2018-10-02T06:43:21.915Z,10.84
2018-10-02T06:44:00.937Z,10.81
2018-10-02T06:45:00.975Z,10.87
2018-10-02T06:46:00.942Z,10.89
2018-10-02T06:47:21.933Z,10.92
2018-10-02T06:48:21.936Z,10.96
2018-10-02T06:49:00.914Z,10.92
2018-10-02T06:50:00.915Z,10.87
2018-10-02T06:51:01.155Z,10.90
2018-10-02T06:52:22.158Z,11.04
2018-10-02T06:53:21.890Z,10.99
2018-10-02T06:54:00.886Z,11.05
2018-10-02T06:55:00.886Z,11.00
2018-10-02T06:56:00.883Z,11.10
2018-10-02T06:57:21.891Z,11.05
2018-10-02T06:58:21.870Z,10.99
2018-10-02T06:59:00.860Z,11.08
2018-10-02T07:00:01.104Z,11.04
2018-10-02T07:01:00.856Z,11.05
2018-10-02T07:02:21.885Z,11.05
2018-10-02T07:03:21.875Z,11.05
2018-10-02T07:04:00.864Z,10.94
2018-10-02T07:05:00.835Z,10.96
2018-10-02T07:06:00.826Z,10.96
2018-10-02T07:07:21.899Z,11.00
2018-10-02T07:08:21.834Z,11.05
2018-10-02T07:09:00.845Z,11.04
2018-10-02T07:10:00.774Z,11.04
2018-10-02T07:11:00.823Z,11.11
2018-10-02T07:12:21.806Z,11.15
2018-10-02T07:13:21.799Z,11.05
2018-10-02T07:14:00.784Z,11.15
2018-10-02T07:15:00.850Z,11.23
2018-10-02T07:16:00.773Z,11.14
2018-10-02T07:17:21.774Z,11.14
2018-10-02T07:18:21.745Z,11.15
2018-10-02T07:19:00.767Z,11.25
2018-10-02T07:20:00.760Z,11.23
2018-10-02T07:21:00.873Z,11.22
2018-10-02T07:22:22.705Z,11.25
2018-10-02T07:23:21.750Z,11.29
2018-10-02T07:24:00.734Z,11.32
2018-10-02T07:25:00.734Z,11.35
2018-10-02T07:26:00.728Z,11.43
2018-10-02T07:27:21.913Z,11.33
2018-10-02T07:28:21.776Z,11.44
2018-10-02T07:29:00.711Z,11.41
2018-10-02T07:30:00.697Z,11.48
2018-10-02T07:31:00.739Z,11.50
2018-10-02T07:32:21.673Z,11.45
2018-10-02T07:33:21.711Z,11.48
2018-10-02T07:34:00.746Z,11.45
2018-10-02T07:35:00.766Z,11.50
2018-10-02T07:36:00.686Z,11.45
2018-10-02T07:37:21.679Z,11.48
2018-10-02T07:38:21.652Z,11.50
2018-10-02T07:39:00.733Z,11.62
2018-10-02T07:40:00.650Z,11.57
2018-10-02T07:41:00.676Z,11.60
2018-10-02T07:42:21.676Z,11.52
2018-10-02T07:43:21.653Z,11.54
2018-10-02T07:44:01.318Z,11.55
2018-10-02T07:45:00.708Z,11.63
2018-10-02T07:46:00.623Z,11.72
2018-10-02T07:47:21.627Z,11.66
2018-10-02T07:48:21.664Z,11.69
2018-10-02T07:49:00.607Z,11.80
2018-10-02T07:50:00.674Z,11.77
2018-10-02T07:51:00.668Z,11.81
2018-10-02T07:52:21.675Z,11.87
2018-10-02T07:53:21.645Z,11.84
2018-10-02T07:54:00.710Z,11.81
2018-10-02T07:55:01.903Z,11.86
2018-10-02T07:56:04.498Z,11.86
2018-10-02T07:57:21.608Z,11.86
2018-10-02T07:58:21.582Z,11.94
2018-10-02T07:59:00.568Z,11.83
2018-10-02T08:00:04.874Z,11.87
2018-10-02T08:01:01.736Z,11.90
2018-10-02T08:02:21.637Z,11.88
2018-10-02T08:03:21.832Z,11.81
2018-10-02T08:04:00.825Z,11.94
2018-10-02T08:05:01.783Z,11.81
2018-10-02T08:06:00.566Z,11.88
2018-10-02T08:07:21.534Z,11.95
2018-10-02T08:08:21.550Z,11.87
2018-10-02T08:09:00.873Z,11.90
2018-10-02T08:10:02.619Z,11.87
2018-10-02T08:11:01.364Z,11.84
2018-10-02T08:12:21.667Z,11.87
2018-10-02T08:13:21.540Z,11.88
2018-10-02T08:14:00.514Z,11.90
2018-10-02T08:15:01.664Z,11.87
2018-10-02T08:16:00.531Z,11.91
2018-10-02T08:17:21.843Z,11.97
2018-10-02T08:18:24.397Z,12.02
2018-10-02T08:19:00.507Z,12.04
2018-10-02T08:20:00.545Z,12.06
2018-10-02T08:21:00.564Z,12.15
2018-10-02T08:22:21.478Z,12.15
2018-10-02T08:23:21.643Z,12.17
2018-10-02T08:24:00.454Z,12.20
2018-10-02T08:25:00.470Z,12.24
2018-10-02T08:26:00.442Z,12.18
2018-10-02T08:27:21.490Z,12.22
2018-10-02T08:28:21.436Z,12.32
2018-10-02T08:29:00.442Z,12.22
2018-10-02T08:30:00.570Z,12.28
2018-10-02T08:31:00.447Z,12.20
2018-10-02T08:32:21.402Z,12.20
2018-10-02T08:33:21.434Z,12.28
2018-10-02T08:34:00.420Z,12.27
2018-10-02T08:35:00.473Z,12.39
2018-10-02T08:36:00.535Z,12.39
2018-10-02T08:37:21.406Z,12.40
2018-10-02T08:38:21.407Z,12.45
2018-10-02T08:39:00.496Z,12.55
2018-10-02T08:40:00.524Z,12.54
2018-10-02T08:41:00.377Z,12.62
2018-10-02T08:42:21.380Z,12.67
2018-10-02T08:43:21.476Z,12.58
2018-10-02T08:44:01.366Z,12.70
2018-10-02T08:45:03.331Z,12.70
2018-10-02T08:46:00.371Z,12.85
2018-10-02T08:47:21.408Z,12.82
2018-10-02T08:48:21.417Z,12.85
2018-10-02T08:49:00.405Z,12.91
2018-10-02T08:50:00.365Z,12.93
2018-10-02T08:51:00.386Z,13.00
2018-10-02T08:52:21.375Z,13.03
2018-10-02T08:53:21.332Z,13.18
2018-10-02T08:54:00.385Z,13.08
2018-10-02T08:55:00.309Z,13.15
2018-10-02T08:56:00.425Z,13.08
2018-10-02T08:57:21.307Z,13.05
2018-10-02T08:58:21.361Z,13.15
2018-10-02T08:59:00.365Z,13.04
2018-10-02T09:00:00.323Z,13.15
2018-10-02T09:01:00.385Z,13.04
2018-10-02T09:02:21.312Z,13.05
2018-10-02T09:03:21.393Z,13.05
2018-10-02T09:04:00.294Z,13.01
2018-10-02T09:05:00.282Z,13.09
2018-10-02T09:06:00.284Z,13.13
2018-10-02T09:07:21.285Z,13.09
2018-10-02T09:08:21.283Z,13.09
2018-10-02T09:09:00.484Z,13.03
2018-10-02T09:10:00.251Z,13.19
2018-10-02T09:11:00.237Z,13.12
2018-10-02T09:12:21.273Z,13.12
2018-10-02T09:13:21.255Z,13.12
2018-10-02T09:14:00.251Z,13.19
2018-10-02T09:15:00.266Z,13.18
2018-10-02T09:16:00.345Z,13.16
2018-10-02T09:17:21.245Z,13.08
2018-10-02T09:18:22.744Z,13.11
2018-10-02T09:19:01.219Z,13.13
2018-10-02T09:20:00.216Z,13.13
2018-10-02T09:21:00.243Z,13.08
2018-10-02T09:22:21.234Z,13.00
2018-10-02T09:23:21.255Z,13.04
2018-10-02T09:24:00.235Z,13.01
2018-10-02T09:25:00.269Z,13.04
2018-10-02T09:26:00.208Z,12.95
2018-10-02T09:27:21.264Z,13.08
2018-10-02T09:28:21.237Z,13.18
2018-10-02T09:29:00.185Z,13.16
2018-10-02T09:30:00.207Z,13.12
2018-10-02T09:31:00.239Z,13.05
2018-10-02T09:32:21.208Z,13.04
2018-10-02T09:33:21.235Z,13.04
2018-10-02T09:34:00.226Z,13.08
2018-10-02T09:35:00.183Z,12.98
2018-10-02T09:36:00.199Z,12.94
2018-10-02T09:37:21.217Z,13.04
2018-10-02T09:38:21.186Z,13.01
2018-10-02T09:39:00.238Z,12.98
2018-10-02T09:40:00.172Z,12.93
2018-10-02T09:41:00.177Z,12.93
2018-10-02T09:42:21.163Z,12.91
2018-10-02T09:43:21.153Z,12.94
2018-10-02T09:44:00.170Z,12.91
2018-10-02T09:45:00.570Z,13.00
2018-10-02T09:46:00.219Z,12.97
2018-10-02T09:47:21.138Z,12.93
2018-10-02T09:48:21.165Z,12.87
2018-10-02T09:49:00.114Z,12.87
2018-10-02T09:50:00.111Z,12.85
2018-10-02T09:51:00.189Z,12.73
2018-10-02T09:52:21.103Z,12.86
2018-10-02T09:53:21.106Z,12.78
2018-10-02T09:54:00.101Z,12.73
2018-10-02T09:55:00.171Z,12.80
2018-10-02T09:56:00.097Z,12.75
2018-10-02T09:57:21.120Z,12.86
2018-10-02T09:58:21.171Z,12.82
2018-10-02T09:59:00.091Z,12.85
2018-10-02T10:00:00.160Z,12.90
2018-10-02T10:01:00.265Z,12.90
2018-10-02T10:02:21.161Z,12.87
2018-10-02T10:03:21.104Z,12.93
2018-10-02T10:04:00.076Z,12.94
2018-10-02T10:05:00.065Z,12.90
2018-10-02T10:06:00.055Z,12.95
2018-10-02T10:07:21.032Z,12.94
2018-10-02T10:08:21.045Z,12.98
2018-10-02T10:09:00.051Z,13.03
2018-10-02T10:10:00.059Z,12.95
2018-10-02T10:11:00.048Z,12.98
2018-10-02T10:12:21.041Z,13.01
2018-10-02T10:13:21.034Z,13.01
2018-10-02T10:14:01.827Z,13.08
2018-10-02T10:15:00.029Z,12.98
2018-10-02T10:16:00.977Z,13.00
2018-10-02T10:17:21.079Z,12.97
2018-10-02T10:18:21.039Z,12.97
2018-10-02T10:19:00.001Z,12.91
2018-10-02T10:20:00.038Z,12.87
2018-10-02T10:21:00.057Z,12.91
2018-10-02T10:22:21.020Z,12.98
2018-10-02T10:23:21.061Z,12.91
2018-10-02T10:23:59.990Z,12.95
2018-10-02T10:25:00.060Z,12.97
2018-10-02T10:25:59.980Z,12.93
2018-10-02T10:27:20.989Z,12.79
2018-10-02T10:28:21.016Z,12.87
2018-10-02T10:28:59.989Z,12.80
2018-10-02T10:29:59.980Z,12.83
2018-10-02T10:30:59.995Z,12.80
2018-10-02T10:32:20.955Z,12.68
2018-10-02T10:33:20.990Z,12.70
2018-10-02T10:33:59.947Z,12.60
2018-10-02T10:35:00.108Z,12.72
2018-10-02T10:35:59.939Z,12.78
2018-10-02T10:37:20.953Z,12.75
2018-10-02T10:38:20.933Z,12.72
2018-10-02T10:38:59.927Z,12.68
2018-10-02T10:39:59.961Z,12.62
2018-10-02T10:40:59.954Z,12.64
2018-10-02T10:42:20.949Z,12.62
2018-10-02T10:43:20.927Z,12.62
2018-10-02T10:43:59.894Z,12.65
2018-10-02T10:44:59.886Z,12.65
2018-10-02T10:45:59.927Z,12.55
2018-10-02T10:47:20.902Z,12.43
2018-10-02T10:48:20.890Z,12.50
2018-10-02T10:48:59.884Z,12.45
2018-10-02T10:49:59.882Z,12.42
2018-10-02T10:50:59.857Z,12.47
2018-10-02T10:52:20.854Z,12.43
2018-10-02T10:53:20.882Z,12.39
2018-10-02T10:53:59.865Z,12.36
2018-10-02T10:54:59.839Z,12.32
2018-10-02T10:55:59.868Z,12.31
2018-10-02T10:57:21.483Z,12.25
2018-10-02T10:58:20.918Z,12.28
2018-10-02T10:58:59.884Z,12.21
2018-10-02T10:59:59.852Z,12.25
2018-10-02T11:00:59.823Z,12.35
2018-10-02T11:02:20.820Z,12.27
2018-10-02T11:03:20.851Z,12.27
2018-10-02T11:03:59.805Z,12.36
2018-10-02T11:04:59.852Z,12.32
2018-10-02T11:05:59.824Z,12.27
2018-10-02T11:07:20.817Z,12.29
2018-10-02T11:08:20.783Z,12.31
2018-10-02T11:08:59.839Z,12.39
2018-10-02T11:09:59.853Z,12.43
2018-10-02T11:10:59.831Z,12.46
2018-10-02T11:12:20.792Z,12.54
2018-10-02T11:13:22.212Z,12.55
2018-10-02T11:13:59.833Z,12.54
2018-10-02T11:14:59.779Z,12.62
2018-10-02T11:15:59.750Z,12.57
2018-10-02T11:17:20.780Z,12.62
2018-10-02T11:18:20.764Z,12.62
2018-10-02T11:18:59.766Z,12.75
2018-10-02T11:19:59.776Z,12.70
2018-10-02T11:20:59.759Z,12.82
2018-10-02T11:22:20.779Z,12.79
2018-10-02T11:23:20.753Z,12.80
2018-10-02T11:23:59.788Z,12.82
2018-10-02T11:24:59.743Z,12.82
2018-10-02T11:25:59.716Z,12.85
2018-10-02T11:27:20.759Z,12.76
2018-10-02T11:28:21.679Z,12.83
2018-10-02T11:28:59.739Z,12.82
2018-10-02T11:29:59.724Z,12.87
2018-10-02T11:30:59.761Z,12.87
2018-10-02T11:32:20.729Z,12.82
2018-10-02T11:33:20.690Z,12.83
2018-10-02T11:33:59.768Z,12.76
2018-10-02T11:34:59.697Z,12.75
2018-10-02T11:35:59.710Z,12.72
2018-10-02T11:37:20.726Z,12.72
2018-10-02T11:38:20.879Z,12.68
2018-10-02T11:38:59.700Z,12.58
2018-10-02T11:39:59.698Z,12.60
2018-10-02T11:40:59.670Z,12.57
2018-10-02T11:42:20.702Z,12.60
2018-10-02T11:43:20.722Z,12.54
2018-10-02T11:43:59.723Z,12.53
2018-10-02T11:44:59.835Z,12.49
2018-10-02T11:45:59.655Z,12.50
2018-10-02T11:47:21.292Z,12.49
2018-10-02T11:48:21.231Z,12.45
2018-10-02T11:48:59.661Z,12.45
2018-10-02T11:49:59.674Z,12.49
2018-10-02T11:50:59.651Z,12.45
2018-10-02T11:52:20.640Z,12.57
2018-10-02T11:53:20.662Z,12.46
2018-10-02T11:53:59.643Z,12.53
2018-10-02T11:54:59.680Z,12.58
2018-10-02T11:55:59.587Z,12.61
2018-10-02T11:57:20.629Z,12.61
2018-10-02T11:58:20.630Z,12.64
2018-10-02T11:58:59.670Z,12.43
2018-10-02T11:59:59.592Z,12.49
2018-10-02T12:00:59.707Z,12.45
2018-10-02T12:02:20.615Z,12.42
2018-10-02T12:03:20.631Z,12.27
2018-10-02T12:03:59.579Z,12.27
2018-10-02T12:04:59.579Z,12.27
2018-10-02T12:05:59.565Z,12.20
2018-10-02T12:07:20.569Z,12.13
2018-10-02T12:08:20.574Z,12.10
2018-10-02T12:08:59.562Z,12.03
2018-10-02T12:09:59.549Z,12.00
2018-10-02T12:10:59.566Z,12.07
2018-10-02T12:12:20.552Z,12.02
2018-10-02T12:13:20.603Z,12.06
2018-10-02T12:13:59.624Z,12.00
2018-10-02T12:14:59.693Z,12.09
2018-10-02T12:15:59.539Z,12.13
2018-10-02T12:17:20.645Z,12.15
2018-10-02T12:18:20.523Z,12.22
2018-10-02T12:19:00.500Z,12.12
2018-10-02T12:19:59.747Z,12.25
2018-10-02T12:20:59.504Z,12.18
2018-10-02T12:22:20.505Z,12.20
2018-10-02T12:23:20.503Z,12.22
2018-10-02T12:23:59.492Z,12.24
2018-10-02T12:24:59.500Z,12.20
2018-10-02T12:25:59.474Z,12.20
2018-10-02T12:27:20.491Z,12.22
2018-10-02T12:28:20.476Z,12.20
2018-10-02T12:28:59.465Z,12.18
2018-10-02T12:29:59.466Z,12.18
2018-10-02T12:30:59.460Z,12.15
2018-10-02T12:32:20.590Z,12.25
2018-10-02T12:33:20.443Z,12.18
2018-10-02T12:33:59.450Z,12.10
2018-10-02T12:34:59.447Z,12.13
2018-10-02T12:35:59.466Z,12.09
2018-10-02T12:37:20.429Z,12.17
2018-10-02T12:38:20.483Z,12.18
2018-10-02T12:38:59.425Z,12.15
2018-10-02T12:39:59.467Z,12.25
2018-10-02T12:40:59.414Z,12.13
2018-10-02T12:42:20.406Z,12.15
2018-10-02T12:43:20.444Z,12.18
2018-10-02T12:43:59.392Z,12.21
2018-10-02T12:44:59.400Z,12.20
2018-10-02T12:45:59.437Z,12.20
2018-10-02T12:47:20.420Z,12.21
2018-10-02T12:48:20.393Z,12.15
2018-10-02T12:48:59.383Z,12.17
2018-10-02T12:49:59.369Z,12.15
2018-10-02T12:50:59.369Z,12.21
2018-10-02T12:52:20.452Z,12.20
2018-10-02T12:53:20.482Z,12.09
2018-10-02T12:53:59.373Z,12.13
2018-10-02T12:54:59.358Z,12.20
2018-10-02T12:55:59.425Z,12.21